Time;durP1;ratioP1;P1;durP2;ratioP2;P2;SDS_P1;SDS_P2;PMS_P1;PMS_P2;Temp;Humidity;BMP_temperature;BMP_pressure;BME280_temperature;BME280_humidity;BME280_pressure;Samples;Min_cycle;Max_cycle;Signal;HPM_P1;HPM_P2
2023/07/18 00:02:10;;;;;;;4.63;1.40;;;14.80;99.90;;;;;;5074650;28;20273;-70
2023/07/18 00:04:36;;;;;;;1.88;0.95;;;14.80;99.90;;;;;;5079393;28;20840;-70
2023/07/18 00:07:02;;;;;;;3.03;1.23;;;14.70;99.90;;;;;;5071785;28;20581;-70
2023/07/18 00:09:28;;;;;;;2.95;1.38;;;14.70;99.90;;;;;;5076200;28;20584;-70
2023/07/18 00:11:53;;;;;;;4.15;1.23;;;14.70;99.90;;;;;;5059854;28;20449;-70
2023/07/18 00:14:19;;;;;;;4.38;1.20;;;14.70;99.90;;;;;;5065733;28;20305;-70
2023/07/18 00:16:45;;;;;;;3.75;1.15;;;14.70;99.90;;;;;;5070176;28;20052;-70
2023/07/18 00:19:12;;;;;;;3.20;1.15;;;14.60;99.90;;;;;;5078332;28;20043;-70
2023/07/18 00:21:40;;;;;;;4.05;1.35;;;14.60;99.90;;;;;;5065092;28;20103;-70
2023/07/18 00:24:06;;;;;;;2.88;1.23;;;14.60;99.90;;;;;;5075602;28;20048;-70
2023/07/18 00:26:32;;;;;;;5.15;1.88;;;14.70;99.90;;;;;;5070223;28;20097;-70
2023/07/18 00:28:58;;;;;;;3.25;1.40;;;14.70;99.90;;;;;;5072725;28;20490;-70
2023/07/18 00:31:24;;;;;;;4.65;1.35;;;14.70;99.90;;;;;;5075523;28;20374;-70
2023/07/18 00:33:49;;;;;;;3.22;1.50;;;14.70;99.90;;;;;;5072431;28;20189;-70
2023/07/18 00:36:15;;;;;;;4.80;1.33;;;14.70;99.90;;;;;;5074895;28;20041;-70
2023/07/18 00:38:41;;;;;;;4.78;1.30;;;14.70;99.90;;;;;;5046206;28;20035;-70
2023/07/18 00:41:08;;;;;;;4.68;1.50;;;14.60;99.90;;;;;;5072623;28;20477;-70
2023/07/18 00:43:34;;;;;;;3.90;1.42;;;14.60;99.90;;;;;;5071415;28;20045;-70
2023/07/18 00:46:01;;;;;;;2.63;1.27;;;14.60;99.90;;;;;;5068787;28;20041;-70
2023/07/18 00:48:33;;;;;;;2.55;1.10;;;14.60;99.90;;;;;;5065931;28;20036;-70
2023/07/18 00:51:00;;;;;;;6.80;1.08;;;14.50;99.90;;;;;;5073723;28;20064;-70
2023/07/18 00:53:27;;;;;;;3.05;1.30;;;14.50;99.90;;;;;;5052072;28;20251;-70
2023/07/18 00:55:54;;;;;;;4.28;1.00;;;14.50;99.90;;;;;;5075238;28;20040;-70
2023/07/18 00:58:20;;;;;;;4.95;1.30;;;14.50;99.90;;;;;;5069972;28;20498;-70
2023/07/18 01:00:46;;;;;;;3.42;1.50;;;14.60;99.90;;;;;;5073060;28;20501;-70
2023/07/18 01:03:12;;;;;;;3.05;1.30;;;14.60;99.90;;;;;;5071884;28;20036;-70
2023/07/18 01:05:39;;;;;;;4.38;1.33;;;14.60;99.90;;;;;;5075851;28;21342;-70
2023/07/18 01:08:04;;;;;;;3.03;1.20;;;14.60;99.90;;;;;;5066434;28;20068;-70
2023/07/18 01:10:30;;;;;;;3.53;1.25;;;14.60;99.90;;;;;;5057297;28;20074;-70
2023/07/18 01:13:00;;;;;;;5.38;1.30;;;14.60;99.90;;;;;;5066582;28;20068;-70
2023/07/18 01:15:33;;;;;;;3.13;1.40;;;14.60;99.90;;;;;;5061698;28;20045;-70
2023/07/18 01:18:03;;;;;;;4.38;1.20;;;14.60;99.90;;;;;;5065293;28;20053;-70
2023/07/18 01:20:29;;;;;;;6.40;1.20;;;14.60;99.90;;;;;;5061113;28;20076;-70
2023/07/18 01:22:59;;;;;;;4.82;1.40;;;14.60;99.90;;;;;;5070842;28;20159;-70
2023/07/18 01:25:26;;;;;;;2.83;1.40;;;14.50;99.90;;;;;;5068199;28;20036;-70
2023/07/18 01:27:54;;;;;;;2.92;1.20;;;14.60;99.90;;;;;;5057071;28;20048;-70
2023/07/18 01:30:21;;;;;;;3.78;1.20;;;14.50;99.90;;;;;;5065143;28;20194;-70
2023/07/18 01:32:50;;;;;;;4.10;1.38;;;14.50;99.90;;;;;;5068259;28;20129;-70
2023/07/18 01:35:23;;;;;;;4.88;1.50;;;14.50;99.90;;;;;;5071423;28;20036;-70
2023/07/18 01:37:48;;;;;;;3.60;1.85;;;14.50;99.90;;;;;;5067041;28;20040;-70
2023/07/18 01:40:19;;;;;;;2.28;1.23;;;14.50;99.90;;;;;;5066829;28;20048;-70
2023/07/18 01:42:46;;;;;;;4.18;1.50;;;14.50;99.90;;;;;;5062870;28;20040;-70
2023/07/18 01:45:12;;;;;;;2.63;1.52;;;14.50;99.90;;;;;;5067536;28;20505;-70
2023/07/18 01:47:39;;;;;;;2.67;1.13;;;14.50;99.90;;;;;;5063669;28;20033;-71
2023/07/18 01:50:07;;;;;;;3.42;1.30;;;14.50;99.90;;;;;;5054757;28;20094;-70
2023/07/18 01:52:34;;;;;;;2.88;1.10;;;14.50;99.90;;;;;;5072509;28;20067;-70
2023/07/18 01:55:02;;;;;;;5.70;1.45;;;14.50;99.90;;;;;;5073080;28;20055;-70
2023/07/18 01:57:41;;;;;;;5.60;1.50;;;14.50;99.90;;;;;;5065190;28;20033;-70
2023/07/18 02:00:12;;;;;;;6.35;1.50;;;14.50;99.90;;;;;;5055624;28;20053;-70
2023/07/18 02:02:41;;;;;;;3.47;1.55;;;14.50;99.90;;;;;;5071582;28;20079;-70
2023/07/18 02:05:08;;;;;;;4.10;1.50;;;14.60;99.90;;;;;;5067073;28;20044;-70
2023/07/18 02:07:34;;;;;;;4.57;1.52;;;14.50;99.90;;;;;;5066076;28;20434;-70
2023/07/18 02:10:00;;;;;;;3.47;1.35;;;14.50;99.90;;;;;;5064368;28;20067;-70
2023/07/18 02:12:26;;;;;;;2.97;1.00;;;14.50;99.90;;;;;;5064010;28;20033;-70
2023/07/18 02:14:52;;;;;;;3.63;1.52;;;14.50;99.90;;;;;;5065628;28;20052;-70
2023/07/18 02:17:18;;;;;;;5.32;1.60;;;14.50;99.90;;;;;;5067468;28;20032;-70
2023/07/18 02:19:43;;;;;;;3.97;1.27;;;14.50;99.90;;;;;;5070329;28;20571;-70
2023/07/18 02:22:09;;;;;;;2.70;1.23;;;14.50;99.90;;;;;;5068360;28;20402;-70
2023/07/18 02:24:35;;;;;;;4.25;1.20;;;14.50;99.90;;;;;;5059210;28;20025;-70
2023/07/18 02:27:00;;;;;;;5.13;1.52;;;14.40;99.90;;;;;;5061681;28;20057;-70
2023/07/18 02:29:26;;;;;;;3.78;1.38;;;14.40;99.90;;;;;;5060316;28;20549;-71
2023/07/18 02:31:52;;;;;;;6.43;1.70;;;14.40;99.90;;;;;;5063537;28;20044;-70
2023/07/18 02:34:18;;;;;;;3.75;1.77;;;14.40;99.90;;;;;;5066800;28;20072;-70
2023/07/18 02:36:43;;;;;;;2.30;1.10;;;14.40;99.90;;;;;;5075148;28;20070;-70
2023/07/18 02:39:10;;;;;;;4.55;1.50;;;14.40;99.90;;;;;;5073391;28;20064;-70
2023/07/18 02:41:37;;;;;;;3.67;1.25;;;14.40;99.90;;;;;;5067952;28;20037;-70
2023/07/18 02:44:04;;;;;;;5.22;1.55;;;14.40;99.90;;;;;;5072098;28;20048;-70
2023/07/18 02:46:30;;;;;;;5.03;1.45;;;14.30;99.90;;;;;;5064431;28;20474;-70
2023/07/18 02:48:55;;;;;;;6.90;1.83;;;14.30;99.90;;;;;;5066583;28;20032;-70
2023/07/18 02:51:21;;;;;;;4.97;1.50;;;14.30;99.90;;;;;;5068777;28;20107;-70
2023/07/18 02:53:49;;;;;;;4.65;1.35;;;14.30;99.90;;;;;;5066216;28;20037;-70
2023/07/18 02:56:15;;;;;;;3.03;1.40;;;14.30;99.90;;;;;;5065726;28;20049;-70
2023/07/18 02:58:41;;;;;;;3.58;1.58;;;14.30;99.90;;;;;;5064332;28;20235;-70
2023/07/18 03:01:07;;;;;;;8.70;1.92;;;14.30;99.90;;;;;;5076614;28;20438;-70
2023/07/18 03:03:34;;;;;;;4.22;1.60;;;14.30;99.90;;;;;;5073358;28;20422;-70
2023/07/18 03:06:00;;;;;;;3.28;1.50;;;14.30;99.90;;;;;;5070322;28;20048;-70
2023/07/18 03:08:26;;;;;;;5.10;1.90;;;14.30;99.90;;;;;;5051749;28;20081;-70
2023/07/18 03:10:51;;;;;;;3.90;1.60;;;14.30;99.90;;;;;;5064019;28;20135;-70
2023/07/18 03:13:17;;;;;;;4.70;1.75;;;14.30;99.90;;;;;;5068054;28;20067;-70
2023/07/18 03:15:43;;;;;;;3.13;1.23;;;14.20;99.90;;;;;;5067126;28;20086;-70
2023/07/18 03:18:09;;;;;;;4.25;1.67;;;14.30;99.90;;;;;;5073652;28;20036;-70
2023/07/18 03:20:35;;;;;;;6.05;1.50;;;14.20;99.90;;;;;;5065097;28;20320;-70
2023/07/18 03:23:04;;;;;;;3.25;1.10;;;14.20;99.90;;;;;;5065027;28;20032;-70
2023/07/18 03:25:30;;;;;;;4.68;1.60;;;14.20;99.90;;;;;;5066869;28;20417;-71
2023/07/18 03:27:55;;;;;;;3.40;1.67;;;14.20;99.90;;;;;;5068088;28;20079;-70
2023/07/18 03:30:21;;;;;;;4.72;1.52;;;14.20;99.90;;;;;;5065873;28;20488;-70
2023/07/18 03:32:49;;;;;;;4.85;1.60;;;14.20;99.90;;;;;;5067554;28;20048;-70
2023/07/18 03:35:14;;;;;;;6.55;1.85;;;14.20;99.90;;;;;;5071001;28;20036;-70
2023/07/18 03:37:40;;;;;;;3.10;1.60;;;14.20;99.90;;;;;;5063652;28;20042;-70
2023/07/18 03:40:06;;;;;;;4.90;1.98;;;14.20;99.90;;;;;;5063782;28;20042;-70
2023/07/18 03:42:33;;;;;;;4.88;2.03;;;14.20;99.90;;;;;;5064380;28;20036;-70
2023/07/18 03:44:59;;;;;;;3.88;1.50;;;14.10;99.90;;;;;;5063260;28;20093;-70
2023/07/18 03:47:25;;;;;;;3.72;1.58;;;14.10;99.90;;;;;;5063357;28;20748;-71
2023/07/18 03:49:50;;;;;;;4.15;2.13;;;14.10;99.90;;;;;;5082313;28;20575;-70
2023/07/18 03:52:16;;;;;;;4.75;1.50;;;14.10;99.90;;;;;;5064338;28;20039;-71
2023/07/18 03:54:43;;;;;;;5.85;1.73;;;14.10;99.90;;;;;;5069930;28;20043;-71
2023/07/18 03:57:08;;;;;;;5.43;1.80;;;14.10;99.90;;;;;;5062897;28;20085;-71
2023/07/18 03:59:34;;;;;;;3.65;1.70;;;14.10;99.90;;;;;;5067594;28;20044;-71
2023/07/18 04:02:00;;;;;;;5.72;1.67;;;14.10;99.90;;;;;;5068995;28;20040;-70
2023/07/18 04:04:27;;;;;;;2.90;1.30;;;14.10;99.90;;;;;;5071321;28;20119;-70
2023/07/18 04:06:52;;;;;;;5.50;1.75;;;14.10;99.90;;;;;;5073154;28;20066;-70
2023/07/18 04:09:19;;;;;;;4.93;1.90;;;14.10;99.90;;;;;;5065684;28;20040;-70
2023/07/18 04:11:46;;;;;;;5.85;1.70;;;14.10;99.90;;;;;;5061036;28;20036;-70
2023/07/18 04:14:12;;;;;;;3.70;1.80;;;14.10;99.90;;;;;;5067685;28;20153;-70
2023/07/18 04:16:38;;;;;;;3.55;1.77;;;14.10;99.90;;;;;;5065539;28;20036;-70
2023/07/18 04:19:04;;;;;;;3.63;1.58;;;14.10;99.90;;;;;;5067330;28;20043;-70
2023/07/18 04:21:30;;;;;;;2.92;1.17;;;14.10;99.90;;;;;;5074211;28;20035;-70
2023/07/18 04:23:56;;;;;;;6.70;1.88;;;14.10;99.90;;;;;;5069039;28;20417;-70
2023/07/18 04:26:21;;;;;;;4.40;1.55;;;14.10;99.90;;;;;;5059441;28;20509;-70
2023/07/18 04:28:48;;;;;;;3.53;1.40;;;14.10;99.90;;;;;;5065417;28;20087;-70
2023/07/18 04:31:13;;;;;;;4.80;1.98;;;14.10;99.90;;;;;;5068373;28;20045;-70
2023/07/18 04:33:39;;;;;;;3.42;1.88;;;14.10;99.90;;;;;;5066189;28;20039;-70
2023/07/18 04:36:06;;;;;;;3.72;1.95;;;14.20;99.90;;;;;;5066190;28;20084;-70
2023/07/18 04:38:34;;;;;;;4.28;1.85;;;14.20;99.90;;;;;;5068690;28;20119;-70
2023/07/18 04:41:00;;;;;;;5.15;1.90;;;14.20;99.90;;;;;;5067872;28;20036;-71
2023/07/18 04:43:25;;;;;;;4.65;1.40;;;14.20;99.90;;;;;;5071435;28;20465;-71
2023/07/18 04:45:51;;;;;;;2.53;1.48;;;14.20;99.90;;;;;;5068953;28;20123;-70
2023/07/18 04:48:18;;;;;;;5.90;1.50;;;14.20;99.90;;;;;;5062337;28;20398;-70
2023/07/18 04:50:46;;;;;;;6.55;2.00;;;14.20;99.90;;;;;;5068049;28;20036;-70
2023/07/18 04:53:12;;;;;;;6.13;1.98;;;14.20;99.90;;;;;;5073040;28;20678;-70
2023/07/18 04:55:38;;;;;;;7.93;2.15;;;14.30;99.90;;;;;;5065782;28;20124;-70
2023/07/18 04:58:06;;;;;;;2.78;1.30;;;14.30;99.90;;;;;;5066008;28;20043;-70
2023/07/18 05:00:33;;;;;;;3.47;1.52;;;14.30;99.90;;;;;;5072485;28;20028;-70
2023/07/18 05:02:59;;;;;;;6.00;1.83;;;14.30;99.90;;;;;;5067895;28;20044;-70
2023/07/18 05:05:28;;;;;;;3.75;1.63;;;14.40;99.90;;;;;;5071616;28;20043;-70
2023/07/18 05:07:56;;;;;;;5.22;1.55;;;14.30;99.90;;;;;;5043665;28;20525;-71
2023/07/18 05:10:22;;;;;;;3.85;1.50;;;14.30;99.90;;;;;;5068339;28;20033;-70
2023/07/18 05:12:48;;;;;;;4.28;1.70;;;14.30;99.90;;;;;;5069231;28;20045;-70
2023/07/18 05:15:13;;;;;;;3.45;1.60;;;14.30;99.90;;;;;;5067706;28;20087;-70
2023/07/18 05:17:39;;;;;;;4.18;1.40;;;14.40;99.90;;;;;;5064819;28;20086;-70
2023/07/18 05:20:05;;;;;;;7.63;1.83;;;14.30;99.90;;;;;;5062800;28;20123;-70
2023/07/18 05:22:31;;;;;;;4.25;1.80;;;14.40;99.90;;;;;;5058585;28;20029;-70
2023/07/18 05:24:56;;;;;;;5.55;1.60;;;14.40;99.90;;;;;;5070510;28;20032;-70
2023/07/18 05:27:22;;;;;;;4.82;1.48;;;14.40;99.90;;;;;;5063854;28;20089;-70
2023/07/18 05:29:48;;;;;;;4.55;1.63;;;14.50;99.90;;;;;;5062736;28;20149;-70
2023/07/18 05:32:14;;;;;;;5.70;1.85;;;14.50;99.90;;;;;;5064558;28;20032;-70
2023/07/18 05:34:39;;;;;;;6.70;1.58;;;14.60;99.90;;;;;;5061843;28;20405;-70
2023/07/18 05:37:05;;;;;;;8.63;1.92;;;14.60;99.90;;;;;;5061713;28;20040;-70
2023/07/18 05:39:31;;;;;;;3.15;1.73;;;14.70;99.90;;;;;;5060615;28;20659;-70
2023/07/18 05:41:57;;;;;;;5.07;1.63;;;14.70;99.90;;;;;;5072600;28;20583;-70
2023/07/18 05:44:23;;;;;;;4.40;1.75;;;14.80;99.90;;;;;;5060126;28;20419;-70
2023/07/18 05:46:48;;;;;;;6.43;1.50;;;14.80;99.90;;;;;;5057020;28;20055;-70
2023/07/18 05:49:14;;;;;;;6.60;1.63;;;14.90;99.90;;;;;;5060451;28;20493;-71
2023/07/18 05:51:40;;;;;;;3.50;1.60;;;14.90;99.90;;;;;;5060100;28;20116;-71
2023/07/18 05:54:05;;;;;;;7.93;1.52;;;14.90;99.90;;;;;;5059839;28;20040;-70
2023/07/18 05:56:34;;;;;;;4.13;1.58;;;15.00;99.90;;;;;;5059834;28;20032;-70
2023/07/18 05:59:00;;;;;;;8.07;1.90;;;15.00;99.90;;;;;;5060038;28;20474;-70
2023/07/18 06:01:26;;;;;;;5.18;1.45;;;15.10;99.90;;;;;;5059070;28;20029;-70
2023/07/18 06:03:51;;;;;;;4.50;1.58;;;15.10;99.90;;;;;;5053529;28;20520;-70
2023/07/18 06:06:17;;;;;;;5.47;2.10;;;15.20;99.90;;;;;;5059548;28;20129;-71
2023/07/18 06:08:43;;;;;;;7.75;1.83;;;15.20;99.90;;;;;;5063480;28;20584;-71
2023/07/18 06:11:08;;;;;;;4.13;1.35;;;15.30;99.90;;;;;;5063516;28;20422;-71
2023/07/18 06:13:34;;;;;;;6.18;1.70;;;15.40;99.90;;;;;;5063386;28;20035;-71
2023/07/18 06:16:00;;;;;;;2.85;1.30;;;15.40;99.90;;;;;;5063977;28;20097;-71
2023/07/18 06:18:25;;;;;;;8.63;1.45;;;15.40;99.90;;;;;;5074894;28;20442;-70
2023/07/18 06:20:51;;;;;;;5.95;1.60;;;15.60;99.90;;;;;;5066927;28;20484;-70
2023/07/18 06:23:17;;;;;;;6.63;2.00;;;15.70;99.90;;;;;;5058898;28;20124;-70
2023/07/18 06:25:42;;;;;;;3.45;1.50;;;15.70;99.90;;;;;;5062532;28;20040;-71
2023/07/18 06:28:08;;;;;;;4.68;1.50;;;15.70;99.90;;;;;;5064467;28;20714;-71
2023/07/18 06:30:34;;;;;;;6.30;1.70;;;15.70;99.90;;;;;;5060142;28;20044;-71
2023/07/18 06:33:00;;;;;;;3.10;1.13;;;15.80;99.90;;;;;;5060721;28;20128;-70
2023/07/18 06:35:25;;;;;;;5.05;1.27;;;15.80;99.90;;;;;;5059485;28;20036;-72
2023/07/18 06:37:51;;;;;;;4.78;1.40;;;15.80;99.90;;;;;;5058457;28;20482;-71
2023/07/18 06:40:17;;;;;;;6.57;1.80;;;15.90;99.90;;;;;;5056839;28;20051;-71
2023/07/18 06:42:43;;;;;;;9.57;1.70;;;16.00;99.90;;;;;;5058735;28;20151;-72
2023/07/18 06:45:09;;;;;;;7.43;1.38;;;16.60;99.90;;;;;;5063868;28;20028;-72
2023/07/18 06:47:35;;;;;;;4.68;1.33;;;17.30;99.90;;;;;;5061177;28;20033;-72
2023/07/18 06:50:01;;;;;;;5.13;1.35;;;18.00;99.90;;;;;;5064838;28;20082;-73
2023/07/18 06:52:26;;;;;;;4.88;1.42;;;18.40;99.90;;;;;;5059766;28;20479;-72
2023/07/18 06:54:54;;;;;;;4.40;1.17;;;18.60;99.90;;;;;;5060046;28;20028;-72
2023/07/18 06:57:20;;;;;;;3.97;1.10;;;18.50;99.90;;;;;;5064565;28;20483;-72
2023/07/18 06:59:46;;;;;;;5.68;1.30;;;18.20;99.90;;;;;;5064158;28;20028;-72
2023/07/18 07:02:12;;;;;;;6.40;1.50;;;18.00;99.90;;;;;;5065546;28;20467;-71
2023/07/18 07:04:39;;;;;;;4.00;1.40;;;17.80;99.90;;;;;;5063343;28;20048;-71
2023/07/18 07:07:05;;;;;;;4.65;1.38;;;17.70;99.90;;;;;;5064425;28;20398;-71
2023/07/18 07:09:31;;;;;;;4.53;1.20;;;17.50;99.90;;;;;;5064055;28;20051;-71
2023/07/18 07:11:57;;;;;;;4.63;1.58;;;17.40;99.90;;;;;;5065618;28;20522;-71
2023/07/18 07:14:22;;;;;;;4.68;0.80;;;17.40;99.90;;;;;;5060594;28;20040;-71
2023/07/18 07:16:48;;;;;;;4.65;1.00;;;17.40;99.90;;;;;;5064239;28;20054;-71
2023/07/18 07:19:14;;;;;;;6.07;1.05;;;17.40;99.90;;;;;;5063800;28;20036;-72
2023/07/18 07:21:39;;;;;;;3.33;1.10;;;17.40;99.90;;;;;;5057974;28;20032;-71
2023/07/18 07:24:05;;;;;;;4.47;1.35;;;17.30;99.90;;;;;;5054297;28;20402;-71
2023/07/18 07:26:32;;;;;;;7.82;0.93;;;17.30;99.90;;;;;;5059108;28;20413;-71
2023/07/18 07:28:57;;;;;;;3.63;1.48;;;17.20;99.90;;;;;;5060213;28;20139;-71
2023/07/18 07:31:23;;;;;;;5.00;1.08;;;17.20;99.90;;;;;;5060446;28;20573;-71
2023/07/18 07:33:49;;;;;;;4.45;1.35;;;17.10;99.90;;;;;;5062264;28;20052;-71
2023/07/18 07:36:15;;;;;;;3.40;1.13;;;17.10;99.90;;;;;;5070077;28;20171;-72
2023/07/18 07:38:41;;;;;;;6.18;1.20;;;17.10;99.90;;;;;;5076018;28;20107;-72
2023/07/18 07:41:07;;;;;;;4.47;1.15;;;17.10;99.90;;;;;;5060849;28;20120;-71
2023/07/18 07:43:33;;;;;;;6.22;1.30;;;17.10;99.90;;;;;;5056664;28;20045;-71
2023/07/18 07:45:59;;;;;;;3.10;1.10;;;17.10;99.90;;;;;;5076898;28;20044;-71
2023/07/18 07:48:25;;;;;;;6.68;1.20;;;17.10;99.90;;;;;;5076364;28;20119;-71
2023/07/18 07:50:50;;;;;;;3.72;1.23;;;17.20;99.90;;;;;;5055957;28;20111;-72
2023/07/18 07:53:16;;;;;;;5.55;1.40;;;17.20;99.90;;;;;;5059093;28;20395;-71
2023/07/18 07:55:41;;;;;;;3.20;1.10;;;17.30;99.90;;;;;;5059760;28;20433;-72
2023/07/18 07:58:07;;;;;;;4.57;1.33;;;17.40;99.90;;;;;;5061061;28;20068;-71
2023/07/18 08:00:33;;;;;;;6.97;1.50;;;17.40;99.90;;;;;;5057487;28;20045;-72
2023/07/18 08:02:59;;;;;;;4.30;0.82;;;17.40;99.90;;;;;;5060367;28;20036;-72
2023/07/18 08:05:24;;;;;;;5.80;1.70;;;17.40;99.90;;;;;;5060338;28;20032;-70
2023/07/18 08:07:50;;;;;;;6.65;1.48;;;17.40;99.90;;;;;;5059138;28;20044;-71
2023/07/18 08:10:17;;;;;;;3.40;1.20;;;17.40;99.90;;;;;;5058025;28;20278;-71
2023/07/18 08:12:42;;;;;;;5.68;1.60;;;17.50;99.90;;;;;;5072827;28;20123;-71
2023/07/18 08:15:08;;;;;;;3.72;1.27;;;17.50;99.90;;;;;;5055002;28;20043;-71
2023/07/18 08:17:34;;;;;;;6.63;1.50;;;17.60;99.90;;;;;;5053465;28;20483;-71
2023/07/18 08:20:00;;;;;;;6.63;1.60;;;17.70;99.90;;;;;;5061686;28;20045;-72
2023/07/18 08:22:25;;;;;;;7.13;1.63;;;17.70;99.90;;;;;;5043190;28;20804;-71
2023/07/18 08:24:51;;;;;;;14.85;2.15;;;17.70;99.90;;;;;;5056435;28;20359;-71
2023/07/18 08:27:17;;;;;;;4.75;1.67;;;17.80;99.90;;;;;;5056371;28;20048;-71
2023/07/18 08:29:43;;;;;;;10.18;1.67;;;17.70;99.90;;;;;;5056194;28;20490;-71
2023/07/18 08:32:09;;;;;;;8.77;1.92;;;17.80;99.90;;;;;;5070126;28;20040;-69
2023/07/18 08:34:35;;;;;;;4.80;1.20;;;17.90;99.90;;;;;;5039121;28;20043;-72
2023/07/18 08:37:05;;;;;;;3.63;1.50;;;18.00;99.90;;;;;;5057119;28;20078;-72
2023/07/18 08:39:31;;;;;;;8.02;1.63;;;18.10;99.90;;;;;;5058210;28;20032;-71
2023/07/18 08:41:58;;;;;;;6.05;1.50;;;18.10;99.90;;;;;;5059275;28;20341;-71
2023/07/18 08:44:23;;;;;;;8.25;1.90;;;18.20;99.90;;;;;;5060321;28;20031;-71
2023/07/18 08:46:50;;;;;;;6.00;1.55;;;18.30;99.90;;;;;;5062582;28;20387;-72
2023/07/18 08:49:19;;;;;;;5.25;1.75;;;18.40;99.90;;;;;;5060170;28;20046;-71
2023/07/18 08:51:46;;;;;;;3.90;1.27;;;18.50;99.90;;;;;;5056633;28;20734;-72
2023/07/18 08:54:12;;;;;;;8.30;1.27;;;18.40;99.90;;;;;;5074637;28;20043;-71
2023/07/18 08:56:45;;;;;;;7.07;1.52;;;18.40;99.90;;;;;;5056672;28;20081;-71
2023/07/18 08:59:12;;;;;;;4.93;1.55;;;18.50;99.90;;;;;;5060150;28;20040;-71
2023/07/18 09:01:48;;;;;;;6.97;1.40;;;18.60;99.90;;;;;;5061906;28;20043;-72
2023/07/18 09:04:14;;;;;;;6.90;1.33;;;18.70;99.90;;;;;;5061567;28;20036;-71
2023/07/18 09:06:55;;;;;;;6.53;1.30;;;18.80;99.90;;;;;;5056567;28;20544;-71
2023/07/18 09:09:22;;;;;;;6.43;1.52;;;18.90;99.90;;;;;;5054996;28;20402;-71
2023/07/18 09:11:58;;;;;;;5.93;1.08;;;19.10;99.90;;;;;;5060691;28;20118;-70
2023/07/18 09:14:28;;;;;;;2.80;1.13;;;19.20;99.90;;;;;;5057393;28;20043;-71
2023/07/18 09:16:59;;;;;;;2.17;0.90;;;19.20;99.90;;;;;;5068705;28;20044;-72
2023/07/18 09:19:45;;;;;;;6.15;1.23;;;19.30;99.90;;;;;;5062766;28;20047;-73
2023/07/18 09:22:13;;;;;;;5.20;1.05;;;19.40;99.90;;;;;;5053061;28;20037;-72
2023/07/18 09:24:40;;;;;;;4.18;0.90;;;19.50;99.90;;;;;;5061850;28;22146;-72
2023/07/18 09:27:08;;;;;;;4.68;0.85;;;19.60;99.90;;;;;;5052654;28;20567;-71
2023/07/18 09:29:33;;;;;;;4.43;0.85;;;19.60;99.90;;;;;;5061964;28;20037;-71
2023/07/18 09:31:59;;;;;;;6.03;1.10;;;19.70;99.90;;;;;;5059197;28;20067;-71
2023/07/18 09:34:27;;;;;;;4.25;1.08;;;19.70;99.90;;;;;;5062129;28;20032;-71
2023/07/18 09:36:57;;;;;;;3.33;1.00;;;19.80;99.90;;;;;;5057712;28;20149;-71
2023/07/18 09:39:24;;;;;;;5.35;1.20;;;19.70;99.90;;;;;;5058027;28;20161;-71
2023/07/18 09:41:51;;;;;;;2.17;0.50;;;19.70;99.90;;;;;;5063288;28;20272;-71
2023/07/18 09:44:18;;;;;;;6.60;0.80;;;19.70;99.90;;;;;;5064286;28;20048;-71
2023/07/18 09:46:44;;;;;;;4.20;0.70;;;19.70;99.90;;;;;;5065612;28;20035;-71
2023/07/18 09:49:10;;;;;;;4.05;0.95;;;19.70;99.90;;;;;;5064753;28;20037;-72
2023/07/18 09:51:37;;;;;;;3.47;0.73;;;19.80;99.90;;;;;;5061951;28;20276;-71
2023/07/18 09:54:05;;;;;;;3.78;0.63;;;19.80;99.90;;;;;;5064914;28;20037;-71
2023/07/18 09:56:34;;;;;;;3.10;0.73;;;19.80;99.90;;;;;;5063863;28;20047;-72
2023/07/18 09:59:04;;;;;;;2.63;0.70;;;19.90;99.90;;;;;;5061383;28;20044;-72
2023/07/18 10:01:32;;;;;;;2.55;1.00;;;20.00;99.90;;;;;;5064028;28;20139;-72
2023/07/18 10:03:58;;;;;;;2.78;1.00;;;20.10;99.90;;;;;;5065206;28;20051;-76
2023/07/18 10:06:25;;;;;;;4.50;0.73;;;20.10;99.90;;;;;;5039843;28;20051;-72
2023/07/18 10:08:53;;;;;;;3.28;0.63;;;20.10;99.90;;;;;;5060669;28;20185;-72
2023/07/18 10:11:18;;;;;;;1.70;0.60;;;20.30;99.90;;;;;;5046792;28;20558;-72
2023/07/18 10:14:06;;;;;;;3.90;0.60;;;20.20;99.90;;;;;;5066737;28;20024;-71
2023/07/18 10:16:35;;;;;;;3.67;0.73;;;20.20;99.90;;;;;;5058428;28;20033;-71
2023/07/18 10:19:17;;;;;;;3.30;0.60;;;20.10;99.90;;;;;;5056584;28;20032;-71
2023/07/18 10:21:45;;;;;;;2.30;0.60;;;20.10;99.90;;;;;;5061942;28;20072;-71
2023/07/18 10:24:20;;;;;;;4.03;1.33;;;20.10;99.90;;;;;;5042572;28;20045;-71
2023/07/18 10:26:51;;;;;;;2.13;0.57;;;20.10;99.90;;;;;;5064044;28;20064;-71
2023/07/18 10:29:16;;;;;;;5.68;1.05;;;20.20;99.90;;;;;;5064042;28;20041;-71
2023/07/18 10:31:42;;;;;;;3.38;0.80;;;20.20;99.90;;;;;;5066561;28;20024;-71
2023/07/18 10:34:14;;;;;;;2.33;0.60;;;20.20;99.90;;;;;;5061461;28;20036;-71
2023/07/18 10:36:40;;;;;;;2.83;0.65;;;20.20;99.90;;;;;;5076111;28;20036;-71
2023/07/18 10:39:12;;;;;;;2.92;0.70;;;20.20;99.90;;;;;;5063195;28;20040;-71
2023/07/18 10:41:42;;;;;;;4.22;0.95;;;20.20;99.90;;;;;;5065214;28;20043;-70
2023/07/18 10:44:14;;;;;;;2.05;0.50;;;20.30;99.90;;;;;;5061368;28;20113;-71
2023/07/18 10:46:40;;;;;;;1.75;0.52;;;20.30;99.90;;;;;;5080482;28;20081;-71
2023/07/18 10:49:07;;;;;;;3.53;0.60;;;20.40;99.90;;;;;;5060216;28;20842;-71
2023/07/18 10:51:33;;;;;;;2.67;0.50;;;20.40;99.90;;;;;;5060301;28;20075;-71
2023/07/18 10:54:00;;;;;;;1.05;0.38;;;20.40;99.90;;;;;;5060157;28;20036;-71
2023/07/18 10:56:26;;;;;;;4.70;0.40;;;20.50;99.90;;;;;;5066439;28;20040;-70
2023/07/18 10:58:54;;;;;;;1.58;0.43;;;20.50;99.90;;;;;;5066230;28;20036;-71
2023/07/18 11:01:23;;;;;;;1.17;0.50;;;20.50;99.90;;;;;;5065662;28;20041;-71
2023/07/18 11:03:48;;;;;;;2.42;0.80;;;20.50;99.90;;;;;;5055338;28;20075;-71
2023/07/18 11:06:14;;;;;;;1.20;0.40;;;20.60;99.90;;;;;;5060624;28;20112;-71
2023/07/18 11:08:45;;;;;;;2.33;0.50;;;20.60;99.90;;;;;;5063287;28;20127;-71
2023/07/18 11:11:11;;;;;;;2.95;0.50;;;20.60;99.90;;;;;;5074240;28;20041;-71
2023/07/18 11:13:38;;;;;;;1.48;0.47;;;20.50;99.90;;;;;;5061877;28;20040;-71
2023/07/18 11:16:09;;;;;;;1.83;0.30;;;20.40;99.90;;;;;;5058065;28;20040;-71
2023/07/18 11:18:36;;;;;;;1.70;0.57;;;20.50;99.90;;;;;;5063048;28;20063;-71
2023/07/18 11:21:03;;;;;;;1.33;0.35;;;20.50;99.90;;;;;;5062408;28;20040;-71
2023/07/18 11:23:30;;;;;;;2.17;0.60;;;20.50;99.90;;;;;;5046191;28;20520;-71
2023/07/18 11:25:56;;;;;;;0.98;0.50;;;20.50;99.90;;;;;;5057899;28;20566;-71
2023/07/18 11:28:27;;;;;;;1.23;0.47;;;20.60;99.90;;;;;;5060062;28;20055;-71
2023/07/18 11:30:53;;;;;;;1.38;0.38;;;20.70;99.90;;;;;;5061607;28;20102;-71
2023/07/18 11:33:19;;;;;;;2.75;0.50;;;20.70;99.90;;;;;;5066730;28;20401;-71
2023/07/18 11:35:46;;;;;;;1.27;0.30;;;20.70;99.90;;;;;;5062548;28;20609;-71
2023/07/18 11:38:15;;;;;;;1.95;0.40;;;20.70;99.90;;;;;;5064599;28;20037;-71
2023/07/18 11:40:40;;;;;;;1.92;0.40;;;20.70;99.90;;;;;;5045513;28;20051;-71
2023/07/18 11:43:19;;;;;;;1.63;0.40;;;20.70;99.90;;;;;;5054732;28;20036;-71
2023/07/18 11:45:46;;;;;;;1.13;0.45;;;20.80;99.90;;;;;;5061041;28;20434;-71
2023/07/18 11:48:15;;;;;;;1.35;0.30;;;20.80;99.90;;;;;;5061395;28;20094;-71
2023/07/18 11:50:45;;;;;;;1.58;0.32;;;20.70;99.90;;;;;;5071330;28;20286;-71
2023/07/18 11:53:11;;;;;;;2.88;0.40;;;20.80;99.90;;;;;;5058058;28;20036;-71
2023/07/18 11:55:37;;;;;;;1.85;0.32;;;20.70;99.90;;;;;;5059219;28;20425;-70
2023/07/18 11:58:07;;;;;;;1.13;0.38;;;20.80;99.90;;;;;;5056287;28;20355;-71
2023/07/18 12:00:35;;;;;;;1.50;0.40;;;20.80;99.90;;;;;;5062474;28;20518;-70
2023/07/18 12:03:02;;;;;;;1.27;0.40;;;20.90;99.60;;;;;;5061080;28;20393;-70
2023/07/18 12:05:27;;;;;;;1.02;0.40;;;20.80;99.60;;;;;;5073064;28;20059;-71
2023/07/18 12:07:53;;;;;;;1.45;0.60;;;20.80;99.70;;;;;;5056661;28;20041;-71
2023/07/18 12:10:21;;;;;;;2.55;0.50;;;20.90;99.90;;;;;;5056606;28;20527;-71
2023/07/18 12:12:46;;;;;;;1.45;0.50;;;21.00;99.90;;;;;;5058023;28;20051;-71
2023/07/18 12:15:13;;;;;;;1.98;0.40;;;21.20;99.60;;;;;;5055354;28;20036;-71
2023/07/18 12:17:38;;;;;;;1.80;0.30;;;21.20;99.40;;;;;;5066437;28;20536;-71
2023/07/18 12:20:05;;;;;;;2.50;0.38;;;21.30;99.20;;;;;;5063300;28;20169;-71
2023/07/18 12:22:31;;;;;;;2.60;0.50;;;21.30;99.10;;;;;;5062369;28;20131;-71
2023/07/18 12:24:57;;;;;;;2.15;0.47;;;21.40;99.00;;;;;;5054329;28;20452;-70
2023/07/18 12:27:31;;;;;;;0.77;0.40;;;21.50;98.90;;;;;;5053413;27;20770;-70
2023/07/18 12:29:56;;;;;;;1.73;0.50;;;21.60;98.60;;;;;;5055493;28;20079;-70
2023/07/18 12:32:22;;;;;;;2.88;0.50;;;21.60;98.60;;;;;;5051875;28;20033;-70
2023/07/18 12:34:47;;;;;;;0.43;0.30;;;21.50;98.60;;;;;;5053268;28;20044;-70
2023/07/18 12:37:13;;;;;;;0.85;0.30;;;21.50;98.50;;;;;;5053058;28;20037;-69
2023/07/18 12:39:39;;;;;;;2.10;0.40;;;21.40;98.50;;;;;;5050976;28;20609;-70
2023/07/18 12:42:05;;;;;;;3.38;0.45;;;21.30;98.30;;;;;;5053201;28;20099;-70
2023/07/18 12:44:43;;;;;;;1.83;0.40;;;21.30;98.00;;;;;;5051517;28;20052;-69
2023/07/18 12:47:09;;;;;;;0.57;0.30;;;21.20;97.90;;;;;;5032552;28;20783;-70